Time;durP1;ratioP1;P1;durP2;ratioP2;P2;SDS_P1;SDS_P2;PMS_P1;PMS_P2;Temp;Humidity;BMP_temperature;BMP_pressure;BME280_temperature;BME280_humidity;BME280_pressure;Samples;Min_cycle;Max_cycle;Signal;HPM_P1;HPM_P2
2024/01/22 00:01:13;;;;;;;8.98;4.32;;;3.70;83.40;;;;;;4983651;28;20031;-72
2024/01/22 00:03:45;;;;;;;6.93;4.60;;;3.50;84.50;;;;;;4965603;28;20090;-73
2024/01/22 00:06:32;;;;;;;8.02;4.90;;;3.20;85.10;;;;;;4983341;28;20031;-73
2024/01/22 00:09:16;;;;;;;10.50;5.05;;;3.10;86.10;;;;;;4983769;28;20145;-72
2024/01/22 00:11:47;;;;;;;8.82;5.03;;;3.00;86.90;;;;;;4973821;28;20065;-72
2024/01/22 00:14:17;;;;;;;9.02;5.03;;;2.80;87.60;;;;;;5002325;28;20130;-73
2024/01/22 00:16:52;;;;;;;11.10;5.30;;;2.70;88.00;;;;;;4985544;28;20073;-73
2024/01/22 00:19:22;;;;;;;10.07;5.20;;;2.60;88.50;;;;;;5002103;28;20109;-73
2024/01/22 00:21:52;;;;;;;10.32;4.95;;;2.50;89.30;;;;;;4992260;28;20036;-73
2024/01/22 00:24:20;;;;;;;9.60;5.07;;;2.50;89.30;;;;;;4982861;28;20096;-72
2024/01/22 00:26:49;;;;;;;10.13;5.10;;;2.40;90.00;;;;;;4983364;28;20260;-73
2024/01/22 00:29:14;;;;;;;10.45;4.80;;;2.40;90.10;;;;;;4982652;28;20050;-73
2024/01/22 00:31:43;;;;;;;10.68;4.85;;;2.30;90.00;;;;;;4982973;28;20031;-73
2024/01/22 00:34:22;;;;;;;9.48;4.38;;;2.20;90.10;;;;;;4983274;28;20033;-73
2024/01/22 00:36:53;;;;;;;8.52;4.38;;;2.30;90.10;;;;;;4983144;28;20277;-73
2024/01/22 00:39:22;;;;;;;7.65;4.22;;;2.20;90.20;;;;;;4982757;28;20047;-73
2024/01/22 00:41:56;;;;;;;8.52;3.92;;;2.20;90.10;;;;;;4965264;28;20352;-72
2024/01/22 00:44:25;;;;;;;7.43;3.60;;;2.30;89.50;;;;;;4982902;28;20329;-72
2024/01/22 00:46:53;;;;;;;8.20;3.45;;;2.30;88.80;;;;;;4966010;28;20345;-73
2024/01/22 00:49:18;;;;;;;7.15;3.20;;;2.30;88.90;;;;;;4965254;28;20078;-72
2024/01/22 00:51:44;;;;;;;7.28;4.00;;;2.30;88.60;;;;;;4982970;28;20023;-73
2024/01/22 00:54:15;;;;;;;9.20;4.05;;;2.30;89.00;;;;;;4983197;28;20105;-71
2024/01/22 00:57:06;;;;;;;10.82;4.55;;;2.30;89.80;;;;;;4969684;28;20041;-73
2024/01/22 00:59:38;;;;;;;8.40;4.50;;;2.30;89.90;;;;;;4981641;28;20520;-72
2024/01/22 01:02:04;;;;;;;7.68;4.30;;;2.20;90.10;;;;;;4982833;28;20050;-72
2024/01/22 01:04:44;;;;;;;7.50;3.75;;;2.00;90.30;;;;;;4965078;28;20046;-72
2024/01/22 01:07:12;;;;;;;9.02;4.20;;;2.00;90.50;;;;;;4982975;28;20085;-72
2024/01/22 01:10:19;;;;;;;8.45;3.45;;;1.90;90.50;;;;;;4983034;28;20046;-73
2024/01/22 01:12:48;;;;;;;8.70;3.47;;;2.00;90.50;;;;;;4982835;28;20054;-73
2024/01/22 01:15:17;;;;;;;8.57;3.33;;;2.00;90.10;;;;;;4982178;28;20023;-74
2024/01/22 01:17:42;;;;;;;7.80;3.40;;;1.90;90.40;;;;;;4982802;28;20025;-74
2024/01/22 01:20:11;;;;;;;9.80;3.80;;;1.90;90.50;;;;;;4965472;28;20046;-74
2024/01/22 01:22:37;;;;;;;7.90;3.33;;;1.80;90.80;;;;;;4982269;28;20039;-72
2024/01/22 01:25:04;;;;;;;6.95;3.20;;;1.70;90.90;;;;;;4949684;28;20179;-74
2024/01/22 01:27:29;;;;;;;5.88;2.83;;;1.60;91.00;;;;;;4949359;28;20026;-73
2024/01/22 01:29:55;;;;;;;6.97;3.03;;;1.50;91.00;;;;;;4982971;28;20215;-74
2024/01/22 01:32:24;;;;;;;7.07;3.25;;;1.50;91.20;;;;;;4982363;28;20254;-72
2024/01/22 01:35:11;;;;;;;10.93;4.30;;;1.40;91.40;;;;;;4982346;28;20038;-73
2024/01/22 01:38:29;;;;;;;;;;;;;;;;;;;;;
2024/01/22 01:41:29;;;;;;;8.60;4.43;;;1.50;91.70;;;;;;4982628;28;20213;-73
2024/01/22 01:44:38;;;;;;;8.25;3.00;;;1.50;91.60;;;;;;4969319;28;20026;-72
2024/01/22 01:47:07;;;;;;;8.52;3.53;;;1.40;91.50;;;;;;4986354;28;20103;-73
2024/01/22 01:49:43;;;;;;;8.88;4.38;;;1.50;91.60;;;;;;4985587;28;20030;-73
2024/01/22 01:52:24;;;;;;;8.13;3.70;;;1.50;91.80;;;;;;4986075;28;20325;-72
2024/01/22 01:55:04;;;;;;;11.48;4.78;;;1.50;92.40;;;;;;4985696;28;20309;-72
2024/01/22 01:57:41;;;;;;;9.63;5.18;;;1.40;92.30;;;;;;4966965;28;20038;-72
2024/01/22 02:00:22;;;;;;;14.23;5.63;;;1.30;92.40;;;;;;4985935;28;20035;-73
2024/01/22 02:02:54;;;;;;;13.60;5.57;;;1.30;92.60;;;;;;4985718;28;20328;-74
2024/01/22 02:05:34;;;;;;;14.15;5.63;;;1.20;93.20;;;;;;4983890;28;20110;-72
2024/01/22 02:08:03;;;;;;;10.18;5.75;;;1.20;93.30;;;;;;4985849;28;20045;-73
2024/01/22 02:10:28;;;;;;;12.32;6.50;;;1.20;93.50;;;;;;4985180;28;20030;-73
2024/01/22 02:12:57;;;;;;;11.70;6.00;;;1.20;93.70;;;;;;4986094;28;20153;-73
2024/01/22 02:15:32;;;;;;;11.18;6.05;;;1.20;94.10;;;;;;4984262;28;20063;-73
2024/01/22 02:18:29;;;;;;;12.93;7.28;;;1.20;93.90;;;;;;4971397;28;20046;-72
2024/01/22 02:21:16;;;;;;;17.08;7.63;;;1.30;94.10;;;;;;4985346;28;20031;-75
2024/01/22 02:23:45;;;;;;;18.00;7.82;;;1.40;94.20;;;;;;4984649;28;20046;-73
2024/01/22 02:26:22;;;;;;;16.60;7.50;;;1.30;94.10;;;;;;4985213;28;20317;-73
2024/01/22 02:28:51;;;;;;;15.88;7.70;;;1.30;94.20;;;;;;4985394;28;20280;-72
2024/01/22 02:31:25;;;;;;;16.00;7.90;;;1.30;94.40;;;;;;4985601;28;20198;-73
2024/01/22 02:34:03;;;;;;;16.50;7.63;;;1.30;94.30;;;;;;4985455;28;20073;-74
2024/01/22 02:36:40;;;;;;;22.92;7.85;;;1.20;94.40;;;;;;4983068;28;20086;-72
2024/01/22 02:39:07;;;;;;;17.70;8.35;;;1.10;94.60;;;;;;4984980;28;20269;-72
2024/01/22 02:41:53;;;;;;;16.67;7.45;;;1.10;94.80;;;;;;4983672;28;20040;-72
2024/01/22 02:44:22;;;;;;;18.05;7.97;;;1.00;95.20;;;;;;4984411;28;20054;-73
2024/01/22 02:46:50;;;;;;;16.85;7.38;;;1.00;95.10;;;;;;4985149;28;20233;-74
2024/01/22 02:49:25;;;;;;;21.45;7.30;;;1.00;95.30;;;;;;4985393;28;20049;-73
2024/01/22 02:51:57;;;;;;;14.30;6.47;;;1.00;95.30;;;;;;4985184;28;20305;-73
2024/01/22 02:54:25;;;;;;;10.93;5.53;;;0.90;95.40;;;;;;4966612;28;20233;-72
2024/01/22 02:57:01;;;;;;;11.07;5.88;;;0.80;95.50;;;;;;4984706;28;20035;-73
2024/01/22 02:59:27;;;;;;;11.80;5.40;;;0.70;95.70;;;;;;4983937;28;20035;-73
2024/01/22 03:01:59;;;;;;;12.60;6.03;;;0.70;95.90;;;;;;4984465;28;20257;-73
2024/01/22 03:04:24;;;;;;;10.48;5.22;;;0.70;95.90;;;;;;4983952;28;20031;-73
2024/01/22 03:06:50;;;;;;;11.05;5.70;;;0.60;96.20;;;;;;4951597;28;20212;-72
2024/01/22 03:09:16;;;;;;;10.93;5.78;;;0.50;96.30;;;;;;4984747;28;20046;-74
2024/01/22 03:11:42;;;;;;;10.68;5.63;;;0.50;96.60;;;;;;4951205;28;20027;-73
2024/01/22 03:14:07;;;;;;;11.15;6.47;;;0.40;96.60;;;;;;4951604;28;20019;-73
2024/01/22 03:16:33;;;;;;;10.70;6.20;;;0.40;96.80;;;;;;4983965;28;20070;-73
2024/01/22 03:18:59;;;;;;;11.85;6.60;;;0.40;96.80;;;;;;4983611;28;20069;-73
2024/01/22 03:21:25;;;;;;;8.13;4.57;;;0.50;96.80;;;;;;4984074;28;20030;-74
2024/01/22 03:24:10;;;;;;;10.40;4.63;;;0.50;96.60;;;;;;4951417;28;20286;-73
2024/01/22 03:26:38;;;;;;;9.40;5.25;;;0.60;96.50;;;;;;4984229;28;20267;-72
2024/01/22 03:29:04;;;;;;;10.43;4.25;;;0.70;96.30;;;;;;4984387;28;20031;-72
2024/01/22 03:31:30;;;;;;;8.90;4.50;;;0.80;96.10;;;;;;4983882;28;20199;-73
2024/01/22 03:33:56;;;;;;;6.82;4.10;;;0.90;95.80;;;;;;4984580;28;20027;-75
2024/01/22 03:36:29;;;;;;;8.45;4.78;;;1.00;95.70;;;;;;4982060;28;20050;-73
2024/01/22 03:38:54;;;;;;;8.60;4.53;;;1.10;95.40;;;;;;4983586;28;20046;-73
2024/01/22 03:41:50;;;;;;;8.93;4.25;;;1.30;95.30;;;;;;4984516;28;20267;-73
2024/01/22 03:44:17;;;;;;;8.85;4.50;;;1.40;94.60;;;;;;4979381;28;20042;-75
2024/01/22 03:46:46;;;;;;;9.52;4.28;;;1.60;94.20;;;;;;4983440;28;20038;-74
2024/01/22 03:49:20;;;;;;;8.88;3.95;;;1.80;93.70;;;;;;4950871;28;20054;-73
2024/01/22 03:51:48;;;;;;;6.10;3.80;;;2.00;93.30;;;;;;4950511;28;20054;-73
2024/01/22 03:54:14;;;;;;;7.45;3.75;;;2.10;93.10;;;;;;4984108;28;20034;-72
2024/01/22 03:56:43;;;;;;;7.70;3.72;;;2.20;92.90;;;;;;4983206;28;20019;-74
2024/01/22 03:59:09;;;;;;;7.82;3.90;;;2.30;92.80;;;;;;4983790;28;20045;-73
2024/01/22 04:01:36;;;;;;;8.07;4.40;;;2.30;92.80;;;;;;4965927;28;20054;-74
2024/01/22 04:04:03;;;;;;;8.73;4.10;;;2.30;92.70;;;;;;4984045;28;20057;-72
2024/01/22 04:06:35;;;;;;;7.82;4.30;;;2.30;92.90;;;;;;4983294;28;20054;-72
2024/01/22 04:09:01;;;;;;;7.15;3.90;;;2.20;93.10;;;;;;4983422;28;20085;-71
2024/01/22 04:11:29;;;;;;;10.05;4.45;;;2.20;93.40;;;;;;4966146;28;20050;-74
2024/01/22 04:14:04;;;;;;;8.45;3.80;;;2.30;93.40;;;;;;4946579;29;20210;-72
2024/01/22 04:16:31;;;;;;;8.98;4.15;;;2.30;93.60;;;;;;4965835;28;20050;-73
2024/01/22 04:18:57;;;;;;;6.95;4.00;;;2.30;93.20;;;;;;4983495;28;20058;-73
2024/01/22 04:21:23;;;;;;;8.15;4.35;;;2.40;93.10;;;;;;4983437;28;20035;-72
2024/01/22 04:23:49;;;;;;;9.20;4.38;;;2.40;93.10;;;;;;4983593;28;20029;-72
2024/01/22 04:26:14;;;;;;;9.10;4.50;;;2.40;93.20;;;;;;4966174;28;20039;-73
2024/01/22 04:28:40;;;;;;;9.32;4.57;;;2.30;93.20;;;;;;4982669;28;20154;-73
2024/01/22 04:31:06;;;;;;;10.15;5.18;;;2.30;93.40;;;;;;4983304;28;20031;-74
2024/01/22 04:33:33;;;;;;;9.75;5.20;;;2.20;93.60;;;;;;4982291;28;20042;-73
2024/01/22 04:36:01;;;;;;;8.82;4.47;;;2.20;93.80;;;;;;4982453;28;20041;-72
2024/01/22 04:38:36;;;;;;;8.10;4.65;;;2.10;94.10;;;;;;4965689;28;20057;-73
2024/01/22 04:41:23;;;;;;;8.68;4.93;;;2.10;94.20;;;;;;4983585;28;20039;-72
2024/01/22 04:43:54;;;;;;;8.82;5.13;;;2.10;94.30;;;;;;4982305;28;20309;-72
2024/01/22 04:46:26;;;;;;;9.70;5.43;;;2.10;94.50;;;;;;4983323;28;20035;-73
2024/01/22 04:48:54;;;;;;;13.35;5.30;;;2.10;94.80;;;;;;4982715;28;20034;-73
2024/01/22 04:51:32;;;;;;;13.27;5.45;;;2.10;95.00;;;;;;4983140;28;20034;-73
2024/01/22 04:53:57;;;;;;;12.48;5.22;;;2.20;95.00;;;;;;4966038;28;20098;-73
2024/01/22 04:56:23;;;;;;;14.48;6.45;;;2.30;94.80;;;;;;4983036;28;20042;-73
2024/01/22 04:58:52;;;;;;;9.88;5.50;;;2.30;94.70;;;;;;4983017;28;20119;-73
2024/01/22 05:01:30;;;;;;;10.57;5.57;;;2.30;94.70;;;;;;4982859;28;20027;-73
2024/01/22 05:04:06;;;;;;;11.27;6.53;;;2.30;94.70;;;;;;4932471;29;20079;-74
2024/01/22 05:06:38;;;;;;;10.88;6.07;;;2.30;94.80;;;;;;4942560;29;20047;-75
2024/01/22 05:09:04;;;;;;;11.70;5.65;;;2.40;94.90;;;;;;4979719;28;20050;-73
2024/01/22 05:11:45;;;;;;;11.30;5.85;;;2.50;94.80;;;;;;4982697;28;20076;-72
2024/01/22 05:14:11;;;;;;;10.55;5.57;;;2.50;94.60;;;;;;4982756;28;20317;-72
2024/01/22 05:16:41;;;;;;;14.70;6.70;;;2.50;94.60;;;;;;4965419;28;20038;-73
2024/01/22 05:19:27;;;;;;;13.68;5.75;;;2.50;94.80;;;;;;4969951;28;20026;-73
2024/01/22 05:22:02;;;;;;;10.43;4.63;;;2.50;94.70;;;;;;4986511;28;20042;-75
2024/01/22 05:24:45;;;;;;;12.48;5.28;;;2.50;94.60;;;;;;4986375;28;20031;-74
2024/01/22 05:27:21;;;;;;;9.15;4.90;;;2.60;94.50;;;;;;4986592;28;20049;-74
2024/01/22 05:29:52;;;;;;;7.95;4.78;;;2.60;94.50;;;;;;4985880;28;20035;-74
2024/01/22 05:32:18;;;;;;;8.65;4.50;;;2.60;94.40;;;;;;4986306;28;20031;-72
2024/01/22 05:34:49;;;;;;;9.40;5.10;;;2.60;94.30;;;;;;4968749;28;20113;-71
2024/01/22 05:37:35;;;;;;;11.70;5.45;;;2.60;94.40;;;;;;4986472;28;20023;-73
2024/01/22 05:40:47;;;;;;;10.82;5.50;;;2.60;94.40;;;;;;4985537;28;20065;-75
2024/01/22 05:43:18;;;;;;;13.88;5.88;;;2.60;94.40;;;;;;4924918;29;20178;-76
2024/01/22 05:45:44;;;;;;;12.48;5.95;;;2.60;94.70;;;;;;4926774;29;20056;-73
2024/01/22 05:48:10;;;;;;;12.77;6.25;;;2.60;94.50;;;;;;4926719;29;20058;-73
2024/01/22 05:50:35;;;;;;;12.02;6.13;;;2.60;94.50;;;;;;4926815;29;20028;-76
2024/01/22 05:53:10;;;;;;;8.88;5.25;;;2.60;94.40;;;;;;4926733;29;20036;-75
2024/01/22 05:56:02;;;;;;;11.95;5.40;;;2.60;94.50;;;;;;4926356;29;20036;-78
2024/01/22 05:58:34;;;;;;;10.18;5.15;;;2.60;94.60;;;;;;4898568;29;20327;-77
2024/01/22 06:01:09;;;;;;;10.90;6.05;;;2.60;94.60;;;;;;4926774;29;20156;-75
2024/01/22 06:03:48;;;;;;;11.80;5.30;;;2.60;94.60;;;;;;4926083;29;20099;-75
2024/01/22 06:06:46;;;;;;;9.98;5.15;;;2.70;94.50;;;;;;4910738;29;20111;-75
2024/01/22 06:09:37;;;;;;;8.65;4.75;;;2.80;94.50;;;;;;4904351;29;20214;-75
2024/01/22 06:12:18;;;;;;;10.60;5.35;;;2.80;94.30;;;;;;4926661;29;20031;-77
2024/01/22 06:14:46;;;;;;;10.00;5.13;;;2.90;94.40;;;;;;4910361;29;20036;-75
2024/01/22 06:17:17;;;;;;;9.60;5.10;;;2.90;94.30;;;;;;4926037;29;20163;-75
2024/01/22 06:19:43;;;;;;;11.60;5.07;;;2.90;94.30;;;;;;4952502;28;20074;-73
2024/01/22 06:22:12;;;;;;;8.82;4.75;;;3.00;94.50;;;;;;4985599;28;20372;-75
2024/01/22 06:24:38;;;;;;;9.35;5.32;;;3.00;94.40;;;;;;4984618;28;20039;-76
2024/01/22 06:27:07;;;;;;;9.65;4.72;;;3.00;94.50;;;;;;4968029;28;20345;-75
2024/01/22 06:29:36;;;;;;;8.32;4.75;;;3.10;94.50;;;;;;4967420;28;20045;-74
2024/01/22 06:32:03;;;;;;;10.20;4.28;;;3.10;94.50;;;;;;4967182;28;20233;-75
2024/01/22 06:35:00;;;;;;;8.82;4.47;;;3.10;94.60;;;;;;4963382;29;20217;-75
2024/01/22 06:37:38;;;;;;;8.98;4.28;;;3.20;94.60;;;;;;4948516;28;20086;-74
2024/01/22 06:40:29;;;;;;;10.35;5.65;;;3.30;94.50;;;;;;4985365;28;20047;-77
2024/01/22 06:43:00;;;;;;;9.27;4.75;;;3.40;94.50;;;;;;4969155;28;20038;-75
2024/01/22 06:45:50;;;;;;;9.25;4.40;;;3.40;94.30;;;;;;4984238;28;20031;-75
2024/01/22 06:51:08;;;;;;;9.85;4.45;;;3.60;94.10;;;;;;4963823;29;20043;-74
2024/01/22 06:53:35;;;;;;;9.13;4.40;;;3.60;94.00;;;;;;4935599;29;20399;-75
2024/01/22 06:56:01;;;;;;;9.88;4.88;;;3.60;94.00;;;;;;4928422;29;20075;-75
2024/01/22 06:58:28;;;;;;;9.50;4.75;;;3.70;93.80;;;;;;4944536;29;20028;-75
2024/01/22 07:01:37;;;;;;;8.90;4.28;;;3.70;93.90;;;;;;4938627;29;20135;-74
2024/01/22 07:04:03;;;;;;;9.63;4.60;;;3.70;93.80;;;;;;4925988;29;20047;-76
2024/01/22 07:06:29;;;;;;;11.93;4.78;;;3.80;93.80;;;;;;4927616;29;20270;-76
2024/01/22 07:08:58;;;;;;;9.60;4.72;;;3.80;93.80;;;;;;4944406;29;20047;-76
2024/01/22 07:14:17;;;;;;;9.68;4.50;;;3.90;93.80;;;;;;4925077;29;20326;-76
2024/01/22 07:16:43;;;;;;;8.80;4.20;;;3.80;93.80;;;;;;4943745;29;20054;-75
2024/01/22 07:19:18;;;;;;;8.55;4.45;;;3.90;93.60;;;;;;4944214;29;20051;-75
2024/01/22 07:21:51;;;;;;;10.23;4.30;;;4.00;93.60;;;;;;4962239;29;20086;-74
2024/01/22 07:24:45;;;;;;;7.68;4.15;;;4.00;93.60;;;;;;4947296;29;20043;-76
2024/01/22 07:27:10;;;;;;;8.60;3.90;;;4.10;93.60;;;;;;4949419;28;20039;-76
2024/01/22 07:29:36;;;;;;;8.45;4.25;;;4.10;93.60;;;;;;4982415;28;20205;-75
2024/01/22 07:32:02;;;;;;;10.32;4.43;;;4.10;93.50;;;;;;4984213;28;20332;-76
2024/01/22 07:34:30;;;;;;;10.07;4.70;;;4.10;93.60;;;;;;4983823;28;20035;-77
2024/01/22 07:36:56;;;;;;;;;;;4.10;93.70;;;;;;4985006;28;20033;-77
2024/01/22 07:39:24;;;;;;;9.88;4.40;;;4.10;93.70;;;;;;4965772;28;19941;-75
2024/01/22 07:41:53;;;;;;;9.85;4.13;;;4.20;93.60;;;;;;4983411;28;20034;-75
2024/01/22 07:44:31;;;;;;;7.80;3.90;;;4.20;93.40;;;;;;4967402;28;20034;-76
2024/01/22 07:47:18;;;;;;;7.90;3.35;;;4.30;93.50;;;;;;4966131;28;20321;-77
2024/01/22 07:49:52;;;;;;;6.25;3.55;;;4.40;93.30;;;;;;4965857;28;20230;-75
2024/01/22 07:52:31;;;;;;;6.97;3.47;;;4.50;93.30;;;;;;4983804;28;20102;-76
2024/01/22 07:55:00;;;;;;;11.90;3.72;;;4.60;93.10;;;;;;4984191;28;20332;-76
2024/01/22 07:57:51;;;;;;;8.88;3.42;;;4.60;92.90;;;;;;4968543;28;20337;-77
2024/01/22 08:00:40;;;;;;;7.63;3.40;;;4.80;92.90;;;;;;4983095;28;20356;-76
2024/01/22 08:03:19;;;;;;;9.50;3.83;;;4.80;92.70;;;;;;4966704;28;20042;-76
2024/01/22 08:05:53;;;;;;;8.45;4.00;;;4.90;92.70;;;;;;4982446;28;20373;-77
2024/01/22 08:11:09;;;;;;;12.05;4.22;;;5.00;92.50;;;;;;4976790;28;20042;-77
2024/01/22 08:13:47;;;;;;;10.85;4.30;;;5.10;92.40;;;;;;4983113;28;20191;-76
2024/01/22 08:16:13;;;;;;;;;;;5.00;92.50;;;;;;4984003;28;20054;-76
2024/01/22 08:18:51;;;;;;;11.55;3.63;;;5.00;92.60;;;;;;4965447;28;19906;-76
2024/01/22 08:24:55;;;;;;;22.52;3.88;;;5.20;92.60;;;;;;4974460;28;20047;-75
2024/01/22 08:27:22;;;;;;;9.77;3.53;;;5.40;92.60;;;;;;4966090;28;20050;-76
2024/01/22 08:30:03;;;;;;;11.20;3.53;;;5.50;92.40;;;;;;4982793;28;20254;-75
2024/01/22 08:32:40;;;;;;;3.83;1.42;;;5.70;92.20;;;;;;4982448;28;20042;-75
2024/01/22 08:35:16;;;;;;;5.45;1.90;;;6.30;92.80;;;;;;4962143;28;20046;-76
2024/01/22 08:38:00;;;;;;;5.72;1.83;;;6.60;91.90;;;;;;4982868;28;20039;-76
2024/01/22 08:40:41;;;;;;;3.63;1.80;;;6.60;91.60;;;;;;4982536;28;20061;-74
2024/01/22 08:43:13;;;;;;;5.07;2.10;;;6.90;91.90;;;;;;4982816;28;20094;-76
2024/01/22 08:45:41;;;;;;;4.85;1.40;;;7.00;91.40;;;;;;4982210;28;20039;-75
2024/01/22 08:48:10;;;;;;;5.03;1.70;;;7.10;91.20;;;;;;4982978;28;20130;-76
2024/01/22 08:51:03;;;;;;;5.25;2.00;;;7.20;91.50;;;;;;4982740;28;20043;-75
2024/01/22 08:53:56;;;;;;;6.00;2.20;;;7.30;91.40;;;;;;4984344;28;20026;-76
2024/01/22 08:56:33;;;;;;;5.32;2.20;;;7.40;91.00;;;;;;4986915;28;20060;-76
2024/01/22 08:59:14;;;;;;;7.18;2.33;;;7.50;91.00;;;;;;4987003;28;20035;-75
2024/01/22 09:02:08;;;;;;;5.70;1.90;;;7.50;90.90;;;;;;4972774;28;20351;-77
2024/01/22 09:04:34;;;;;;;5.70;2.30;;;7.50;91.10;;;;;;4985730;28;20053;-76
2024/01/22 09:07:11;;;;;;;4.95;1.80;;;7.60;91.30;;;;;;4987011;28;20050;-76
2024/01/22 09:09:40;;;;;;;4.30;1.42;;;7.70;91.20;;;;;;4969571;28;20043;-74
2024/01/22 09:12:05;;;;;;;4.80;1.88;;;7.90;91.20;;;;;;4986975;28;20317;-75
2024/01/22 09:14:40;;;;;;;12.50;2.95;;;8.00;91.30;;;;;;4986304;28;20065;-75
2024/01/22 09:17:06;;;;;;;9.02;1.88;;;8.10;91.10;;;;;;4986427;28;20097;-75
2024/01/22 09:19:31;;;;;;;25.23;4.25;;;8.20;91.20;;;;;;4985926;28;20035;-75
2024/01/22 09:22:00;;;;;;;6.05;2.30;;;8.40;91.10;;;;;;4985843;28;20018;-78
2024/01/22 09:24:25;;;;;;;;;;;8.60;91.10;;;;;;4985674;28;20225;-76
2024/01/22 09:26:51;;;;;;;3.85;1.20;;;8.70;91.00;;;;;;4986145;28;20203;-77
2024/01/22 09:32:58;;;;;;;2.30;0.60;;;9.30;93.20;;;;;;4986112;28;20033;-75
2024/01/22 09:36:22;;;;;;;2.15;0.40;;;9.70;93.40;;;;;;4964493;28;20311;-76
2024/01/22 09:39:00;;;;;;;0.93;0.30;;;10.40;94.20;;;;;;4970476;28;20093;-75
2024/01/22 09:42:02;;;;;;;2.05;0.20;;;11.10;93.70;;;;;;4938375;29;20287;-78
2024/01/22 09:44:40;;;;;;;3.25;0.50;;;11.60;93.00;;;;;;4983794;28;20058;-76
2024/01/22 09:47:47;;;;;;;2.05;0.40;;;11.80;92.70;;;;;;4972239;28;20026;-75
2024/01/22 09:50:19;;;;;;;1.25;0.40;;;12.00;92.50;;;;;;4936577;29;20071;-73
2024/01/22 09:52:55;;;;;;;0.75;0.30;;;12.00;92.60;;;;;;4945504;29;20125;-74
2024/01/22 09:55:24;;;;;;;1.27;0.32;;;12.00;92.80;;;;;;4931563;29;20040;-76
2024/01/22 09:58:44;;;;;;;0.82;0.20;;;12.20;92.80;;;;;;4926437;29;20026;-76
2024/01/22 10:01:48;;;;;;;1.00;0.25;;;12.40;92.70;;;;;;4943442;29;20210;-74
2024/01/22 10:04:24;;;;;;;0.90;0.20;;;12.60;92.70;;;;;;4952003;28;20244;-75
2024/01/22 10:07:21;;;;;;;1.23;0.35;;;12.70;92.50;;;;;;4962966;28;20028;-73
2024/01/22 10:09:56;;;;;;;1.58;0.25;;;12.80;92.50;;;;;;4984249;28;20122;-72
2024/01/22 10:12:54;;;;;;;0.70;0.20;;;12.80;92.60;;;;;;4967634;28;20039;-71
2024/01/22 10:15:44;;;;;;;;;;;12.90;92.70;;;;;;4967938;28;20034;-72
2024/01/22 10:18:29;;;;;;;1.67;0.30;;;12.90;92.70;;;;;;4966773;28;19913;-73
2024/01/22 10:21:03;;;;;;;0.85;0.25;;;12.90;92.80;;;;;;4982416;28;20027;-73
2024/01/22 10:23:37;;;;;;;3.70;0.40;;;12.80;93.00;;;;;;4983730;28;20388;-74
2024/01/22 10:26:09;;;;;;;2.15;0.30;;;12.80;93.30;;;;;;4985260;28;20106;-73
2024/01/22 10:29:01;;;;;;;0.90;0.45;;;12.70;93.20;;;;;;4951128;28;20034;-72
2024/01/22 10:31:30;;;;;;;1.25;0.30;;;12.80;93.00;;;;;;4984266;28;20042;-72
2024/01/22 10:34:04;;;;;;;1.25;0.30;;;12.80;93.00;;;;;;4985488;28;20042;-72
2024/01/22 10:36:29;;;;;;;1.35;0.30;;;12.70;92.90;;;;;;4966895;28;20030;-73
2024/01/22 10:39:23;;;;;;;0.80;0.30;;;12.80;92.90;;;;;;4984567;28;20233;-72
2024/01/22 10:41:48;;;;;;;2.17;0.30;;;12.70;93.00;;;;;;4983919;28;20042;-72
2024/01/22 10:44:21;;;;;;;1.92;0.40;;;12.60;93.30;;;;;;4983668;28;20047;-72
2024/01/22 10:46:56;;;;;;;0.98;0.30;;;12.60;93.40;;;;;;4967537;28;20023;-74
2024/01/22 10:49:22;;;;;;;1.30;0.22;;;12.70;93.40;;;;;;4967154;28;20035;-73
2024/01/22 10:52:18;;;;;;;2.80;0.47;;;12.70;93.40;;;;;;4952812;29;20035;-77
2024/01/22 10:54:44;;;;;;;0.90;0.25;;;12.80;93.40;;;;;;4964110;29;20078;-75
2024/01/22 10:57:18;;;;;;;1.05;0.30;;;12.90;93.40;;;;;;4965558;29;20019;-77
2024/01/22 10:59:54;;;;;;;0.90;0.20;;;12.90;93.30;;;;;;4967124;28;20035;-76
2024/01/22 11:02:34;;;;;;;0.95;0.35;;;12.90;93.40;;;;;;4984707;28;20111;-75
2024/01/22 11:05:14;;;;;;;1.10;0.30;;;13.00;93.20;;;;;;4984767;28;20042;-74
2024/01/22 11:07:43;;;;;;;1.23;0.30;;;13.00;93.10;;;;;;4983554;28;20018;-74
2024/01/22 11:10:40;;;;;;;1.42;0.40;;;13.00;93.10;;;;;;4943442;29;20044;-75
2024/01/22 11:13:30;;;;;;;1.23;0.20;;;13.10;93.00;;;;;;4944200;29;20032;-76
2024/01/22 11:16:06;;;;;;;1.20;0.20;;;13.20;92.90;;;;;;4932481;29;20041;-74
2024/01/22 11:18:55;;;;;;;0.95;0.20;;;13.40;92.70;;;;;;4914195;29;20040;-76
2024/01/22 11:21:24;;;;;;;1.20;0.38;;;13.60;92.50;;;;;;4933956;29;20127;-76
2024/01/22 11:24:12;;;;;;;0.80;0.22;;;13.60;92.40;;;;;;4926312;29;20241;-76
2024/01/22 11:26:57;;;;;;;1.83;0.30;;;13.60;92.60;;;;;;4940449;29;20039;-75
2024/01/22 11:29:43;;;;;;;1.13;0.30;;;13.50;92.60;;;;;;4943992;29;20035;-75
2024/01/22 11:32:50;;;;;;;1.33;0.30;;;13.50;92.70;;;;;;4943561;29;20110;-75
2024/01/22 11:35:41;;;;;;;1.10;0.30;;;13.60;93.30;;;;;;4943828;29;20115;-74
2024/01/22 11:38:19;;;;;;;0.82;0.28;;;13.60;93.20;;;;;;4944037;29;20040;-74
2024/01/22 11:41:11;;;;;;;0.80;0.30;;;13.40;94.00;;;;;;4964912;28;20355;-75
2024/01/22 11:43:37;;;;;;;3.28;0.40;;;13.40;94.60;;;;;;5002732;28;20027;-75
2024/01/22 11:46:15;;;;;;;2.40;0.30;;;13.20;94.80;;;;;;5003534;28;20041;-75
2024/01/22 11:48:41;;;;;;;;;;;13.30;95.00;;;;;;4985880;28;20121;-74
2024/01/22 11:51:12;;;;;;;0.82;0.30;;;13.40;94.80;;;;;;5003567;28;19905;-76
2024/01/22 11:54:04;;;;;;;0.55;0.20;;;13.50;94.50;;;;;;5002753;28;20316;-74
2024/01/22 11:56:36;;;;;;;0.65;0.20;;;13.50;94.20;;;;;;4985800;28;20061;-75
2024/01/22 11:59:02;;;;;;;1.52;0.30;;;13.40;94.30;;;;;;5002351;28;20110;-75
2024/01/22 12:01:28;;;;;;;1.08;0.20;;;13.40;94.40;;;;;;4983801;28;20026;-76
2024/01/22 12:03:53;;;;;;;0.70;0.20;;;13.40;94.40;;;;;;5003105;28;20022;-76
2024/01/22 12:06:55;;;;;;;2.20;0.40;;;13.40;94.20;;;;;;5002973;28;20034;-76
2024/01/22 12:09:20;;;;;;;2.58;0.47;;;13.40;94.30;;;;;;4942474;29;20058;-75
2024/01/22 12:11:55;;;;;;;1.48;0.20;;;13.30;94.50;;;;;;4942966;29;20040;-74
2024/01/22 12:14:27;;;;;;;1.08;0.30;;;13.30;94.60;;;;;;4989257;28;20034;-78
2024/01/22 12:17:19;;;;;;;;;;;13.50;94.50;;;;;;4989830;28;20305;-76
2024/01/22 12:19:47;;;;;;;1.48;0.30;;;13.60;94.20;;;;;;4985711;28;19906;-77
2024/01/22 12:22:43;;;;;;;0.82;0.38;;;13.50;94.60;;;;;;4988710;28;20348;-74
2024/01/22 12:25:12;;;;;;;1.17;0.22;;;13.50;94.80;;;;;;5002338;28;20041;-76
2024/01/22 12:27:41;;;;;;;0.77;0.20;;;13.50;94.90;;;;;;4984765;28;20061;-75
2024/01/22 12:30:24;;;;;;;1.15;0.20;;;13.70;94.70;;;;;;4984980;28;20044;-74
2024/01/22 12:32:58;;;;;;;1.08;0.20;;;13.80;94.80;;;;;;5001074;28;20088;-76
2024/01/22 12:35:27;;;;;;;1.20;0.20;;;14.00;95.10;;;;;;5002909;28;20031;-74
2024/01/22 12:38:20;;;;;;;0.68;0.20;;;14.20;94.80;;;;;;5002784;28;20030;-75
2024/01/22 12:41:09;;;;;;;0.80;0.20;;;14.10;94.20;;;;;;4981939;28;20042;-75
2024/01/22 12:43:38;;;;;;;0.77;0.20;;;13.80;94.70;;;;;;4941604;29;20079;-74
2024/01/22 12:46:38;;;;;;;1.63;0.30;;;13.70;95.00;;;;;;4926647;29;20051;-75
2024/01/22 12:49:08;;;;;;;0.93;0.20;;;13.60;95.20;;;;;;4941797;29;20043;-75
2024/01/22 12:51:34;;;;;;;0.73;0.20;;;13.50;95.20;;;;;;4942090;29;20338;-74
2024/01/22 12:54:02;;;;;;;1.63;0.28;;;13.50;95.20;;;;;;4942623;29;20028;-74
2024/01/22 12:56:28;;;;;;;;;;;13.40;95.30;;;;;;4941323;29;20230;-75
2024/01/22 12:58:53;;;;;;;0.63;0.20;;;13.50;95.30;;;;;;4942681;29;20110;-75
2024/01/22 13:01:24;;;;;;;1.00;0.30;;;13.50;95.20;;;;;;4942682;29;20023;-77
2024/01/22 13:04:05;;;;;;;0.68;0.22;;;13.60;95.10;;;;;;4931167;29;20095;-75
2024/01/22 13:06:56;;;;;;;1.00;0.20;;;13.50;95.20;;;;;;4928810;29;20392;-75
2024/01/22 13:09:56;;;;;;;1.05;0.20;;;13.50;95.40;;;;;;4923149;29;20262;-75
2024/01/22 13:12:22;;;;;;;0.45;0.20;;;13.40;96.20;;;;;;4924369;29;20036;-76
2024/01/22 13:15:00;;;;;;;0.82;0.15;;;13.30;95.80;;;;;;4941826;29;20036;-75
2024/01/22 13:17:32;;;;;;;0.98;0.30;;;13.30;95.80;;;;;;4942544;29;20279;-74
2024/01/22 13:20:06;;;;;;;0.63;0.20;;;13.30;95.80;;;;;;4942705;29;20107;-75
2024/01/22 13:22:32;;;;;;;1.85;0.20;;;13.30;95.80;;;;;;4941058;29;20051;-76
2024/01/22 13:25:02;;;;;;;1.67;0.20;;;13.30;95.90;;;;;;4931410;28;20035;-74
2024/01/22 13:27:30;;;;;;;0.50;0.10;;;13.40;95.80;;;;;;4982370;28;20018;-75
2024/01/22 13:29:56;;;;;;;1.00;0.20;;;13.40;95.80;;;;;;4982403;28;20106;-75
2024/01/22 13:32:34;;;;;;;0.40;0.10;;;13.30;95.80;;;;;;4981827;28;20031;-76
2024/01/22 13:35:18;;;;;;;;;;;;;;;;;;;;;
2024/01/22 13:40:38;;;;;;;0.73;0.50;;;13.10;95.90;;;;;;4984329;28;20035;-74
2024/01/22 13:43:07;;;;;;;0.65;0.10;;;13.00;96.10;;;;;;4985892;28;20035;-74
2024/01/22 13:45:36;;;;;;;2.38;0.20;;;13.00;96.10;;;;;;4968611;28;20038;-75
2024/01/22 13:48:02;;;;;;;1.42;0.47;;;13.00;96.10;;;;;;4985784;28;20031;-75
2024/01/22 13:50:28;;;;;;;1.33;0.17;;;13.00;96.20;;;;;;4984387;28;20336;-74
2024/01/22 13:52:53;;;;;;;1.92;0.30;;;13.00;96.30;;;;;;4968233;28;20031;-75
2024/01/22 13:55:19;;;;;;;0.47;0.20;;;13.10;96.10;;;;;;4985870;28;20225;-73